GUXZM EGLW-EGLW

Flight info

Callsign GUXZM
Flight time 0h 1m
Altitude 3000
Route //
Aircraft EC35/L-VGDW/C

Departure

Time 2026-04-16 09:55
Airport London Heliport (EGLW)

Arrival

Time 2026-04-16 09:57
Airport London Heliport (EGLW)
Time Latitude Longitude Altitude Speed Heading
2026-04-16 09:42 51.46982 -0.17911 22 ft 0 kts 290°
2026-04-16 09:44 51.46982 -0.17910 22 ft 2 kts 253°
2026-04-16 09:44 51.46983 -0.17915 22 ft 0 kts 60°
2026-04-16 09:44 51.46983 -0.17913 22 ft 0 kts 21°
2026-04-16 09:45 51.46983 -0.17912 22 ft 0 kts 15°
2026-04-16 09:49 51.46983 -0.17913 22 ft 0 kts 23°
2026-04-16 09:49 51.46985 -0.17907 25 ft 1 kts 294°
2026-04-16 09:49 51.46986 -0.17905 22 ft 0 kts 292°
2026-04-16 09:50 51.46992 -0.17917 60 ft 5 kts 268°
2026-04-16 09:51 51.46997 -0.17961 58 ft 3 kts 202°
2026-04-16 09:51 51.47002 -0.17968 98 ft 2 kts 191°
2026-04-16 09:51 51.46995 -0.17957 42 ft 2 kts 248°
2026-04-16 09:51 51.46996 -0.17957 31 ft 0 kts 221°
2026-04-16 09:54 51.46996 -0.17958 26 ft 0 kts 232°
2026-04-16 09:54 51.46996 -0.17963 171 ft 1 kts 245°
2026-04-16 09:54 51.47006 -0.17970 179 ft 2 kts 250°
2026-04-16 09:54 51.47015 -0.17977 188 ft 4 kts 246°
2026-04-16 09:55 51.46954 -0.18045 396 ft 18 kts 245°
2026-04-16 09:55 51.46737 -0.18449 634 ft 75 kts 242°
2026-04-16 09:55 51.46483 -0.19365 731 ft 97 kts 256°
2026-04-16 09:55 51.46561 -0.20444 1080 ft 105 kts 293°
2026-04-16 09:56 51.46672 -0.20756 1156 ft 100 kts 298°
2026-04-16 09:56 51.46788 -0.21105 1527 ft 38 kts 306°
2026-04-16 09:56 51.47029 -0.21869 938 ft 86 kts 301°
2026-04-16 09:56 51.47546 -0.22316 1025 ft 59 kts 341°
2026-04-16 09:57 51.47765 -0.22317 1030 ft 20 kts 346°
2026-04-16 09:57 51.47955 -0.22812 968 ft 73 kts 251°
2026-04-16 09:57 51.47509 -0.22870 1235 ft 85 kts 230°
2026-04-16 09:57 51.47103 -0.23562 1465 ft 95 kts 223°
2026-04-16 09:58 51.46728 -0.24415 1237 ft 103 kts 242°
2026-04-16 09:58 51.46432 -0.25192 666 ft 92 kts 235°
2026-04-16 09:58 51.45941 -0.25919 1051 ft 87 kts 225°
2026-04-16 09:58 51.45322 -0.26117 1402 ft 90 kts 202°
2026-04-16 09:59 51.44589 -0.26221 1193 ft 106 kts 195°
2026-04-16 09:59 51.43962 -0.26188 1137 ft 94 kts 187°
2026-04-16 09:59 51.43317 -0.26063 1080 ft 99 kts 185°
2026-04-16 09:59 51.42709 -0.26024 1039 ft 78 kts 193°
2026-04-16 10:00 51.42255 -0.26350 825 ft 58 kts 223°
2026-04-16 10:00 51.42234 -0.26375 832 ft 53 kts 223°
2026-04-16 10:00 51.42067 -0.26630 413 ft 22 kts 240°
2026-04-16 10:02 51.42051 -0.26662 182 ft 0 kts 254°
2026-04-16 10:02 51.42030 -0.27616 379 ft 0 kts 254°
2026-04-16 10:02 51.41474 -0.27581 379 ft 0 kts 254°
2026-04-16 10:03 51.40557 -0.31137 379 ft 907 kts 254°
2026-04-16 10:03 51.40480 -0.31511 33 ft 0 kts 254°
2026-04-16 10:07 51.40482 -0.31512 33 ft 1 kts 325°
2026-04-16 10:07 51.40512 -0.31596 182 ft 21 kts 292°
2026-04-16 10:07 51.40536 -0.31711 851 ft 46 kts 244°
2026-04-16 10:08 51.40562 -0.32643 894 ft 107 kts 264°
2026-04-16 10:08 51.40653 -0.33814 992 ft 98 kts 268°
2026-04-16 10:08 51.40847 -0.34921 1063 ft 110 kts 272°
2026-04-16 10:08 51.40972 -0.36114 1080 ft 63 kts 259°
2026-04-16 10:09 51.41141 -0.37017 1321 ft 98 kts 272°
2026-04-16 10:09 51.41173 -0.38192 1412 ft 116 kts 257°
2026-04-16 10:09 51.41070 -0.39531 1368 ft 131 kts 277°
2026-04-16 10:09 51.41616 -0.40121 1404 ft 114 kts 316°
2026-04-16 10:10 51.42397 -0.40758 1430 ft 133 kts 327°
2026-04-16 10:10 51.43145 -0.41271 1713 ft 107 kts 317°
2026-04-16 10:10 51.43755 -0.42107 1671 ft 130 kts 314°
2026-04-16 10:10 51.44475 -0.42840 1555 ft 87 kts 329°
2026-04-16 10:11 51.44815 -0.42797 1648 ft 24 kts 323°
2026-04-16 10:11 51.44874 -0.42733 1509 ft 4 kts 319°
2026-04-16 10:11 51.44901 -0.42722 1402 ft 5 kts 302°
2026-04-16 10:11 51.44988 -0.42752 1351 ft 21 kts 292°
2026-04-16 10:12 51.45200 -0.42882 1326 ft 47 kts 330°
2026-04-16 10:12 51.45628 -0.42894 1293 ft 74 kts
2026-04-16 10:12 51.46217 -0.42813 1185 ft 96 kts 354°
2026-04-16 10:12 51.46876 -0.42720 1188 ft 79 kts
2026-04-16 10:13 51.47218 -0.42731 1204 ft 11 kts 353°
2026-04-16 10:13 51.47196 -0.42737 1205 ft 9 kts 353°
2026-04-16 10:13 51.47169 -0.42700 1418 ft 1 kts 358°
2026-04-16 10:13 51.47503 -0.42654 1647 ft 92 kts 350°
2026-04-16 10:14 51.48039 -0.43347 1744 ft 96 kts 297°
2026-04-16 10:14 51.48430 -0.44083 842 ft 81 kts 287°
2026-04-16 10:14 51.48647 -0.44665 557 ft 38 kts 287°
2026-04-16 10:14 51.48691 -0.44745 455 ft 2 kts 274°
2026-04-16 10:15 51.48702 -0.44756 454 ft 9 kts 278°
2026-04-16 10:15 51.48810 -0.44972 951 ft 62 kts 301°
2026-04-16 10:15 51.49394 -0.45169 812 ft 59 kts 345°
2026-04-16 10:15 51.49616 -0.45178 1019 ft 9 kts 341°
2026-04-16 10:16 51.49621 -0.45177 1006 ft 7 kts 328°
2026-04-16 10:16 51.49497 -0.45223 1179 ft 57 kts 209°
2026-04-16 10:17 51.48905 -0.45276 896 ft 94 kts 190°
2026-04-16 10:17 51.48420 -0.45271 952 ft 30 kts 185°
2026-04-16 10:17 51.48387 -0.45274 922 ft 4 kts 183°
2026-04-16 10:17 51.48382 -0.45098 1279 ft 43 kts 134°
2026-04-16 10:18 51.48151 -0.44254 1279 ft 104 kts 118°
2026-04-16 10:18 51.47762 -0.43139 709 ft 113 kts 169°
2026-04-16 10:18 51.47034 -0.43228 613 ft 100 kts 189°
2026-04-16 10:18 51.46345 -0.43413 558 ft 101 kts 199°
2026-04-16 10:19 51.45848 -0.43957 708 ft 71 kts 239°
2026-04-16 10:19 51.45571 -0.44404 725 ft 83 kts 190°
2026-04-16 10:19 51.45026 -0.44623 724 ft 84 kts 200°
2026-04-16 10:19 51.44555 -0.44577 1105 ft 73 kts 170°
2026-04-16 10:20 51.44000 -0.44234 1264 ft 93 kts 162°
2026-04-16 10:20 51.43334 -0.43786 1309 ft 114 kts 167°
2026-04-16 10:20 51.42567 -0.43438 1403 ft 127 kts 171°
2026-04-16 10:20 51.41808 -0.42724 1442 ft 134 kts 127°
2026-04-16 10:21 51.41336 -0.41779 996 ft 84 kts 147°
2026-04-16 10:21 51.40840 -0.41092 843 ft 101 kts 138°
2026-04-16 10:21 51.40516 -0.40630 1004 ft 25 kts 142°
2026-04-16 10:21 51.40498 -0.40608 903 ft 2 kts 139°
2026-04-16 10:22 51.40499 -0.40613 884 ft 2 kts 141°
2026-04-16 10:22 51.40418 -0.40809 1202 ft 30 kts 229°
2026-04-16 10:22 51.40246 -0.41312 1472 ft 60 kts 243°
2026-04-16 10:22 51.40130 -0.41704 1651 ft 65 kts 247°
2026-04-16 10:23 51.39764 -0.42307 1458 ft 104 kts 223°
2026-04-16 10:23 51.39223 -0.43262 802 ft 115 kts 234°
2026-04-16 10:23 51.39293 -0.44125 864 ft 93 kts 273°
2026-04-16 10:23 51.39347 -0.45299 816 ft 119 kts 267°
2026-04-16 10:24 51.39429 -0.46562 1008 ft 112 kts 271°
2026-04-16 10:24 51.39491 -0.47850 1064 ft 95 kts 269°
2026-04-16 10:24 51.39565 -0.48995 1134 ft 119 kts 272°
2026-04-16 10:24 51.39771 -0.50245 1080 ft 128 kts 275°
2026-04-16 10:25 51.40020 -0.51449 1120 ft 100 kts 283°
2026-04-16 10:25 51.40167 -0.52720 997 ft 120 kts 268°
2026-04-16 10:25 51.40163 -0.53790 922 ft 93 kts 256°
2026-04-16 10:25 51.39896 -0.54779 915 ft 52 kts 263°
2026-04-16 10:26 51.39563 -0.55530 779 ft 111 kts 230°
2026-04-16 10:26 51.39128 -0.56637 739 ft 121 kts 242°
2026-04-16 10:26 51.38857 -0.57770 743 ft 67 kts 252°
2026-04-16 10:26 51.38458 -0.58599 634 ft 112 kts 226°
2026-04-16 10:27 51.37939 -0.59563 647 ft 116 kts 235°
2026-04-16 10:27 51.37454 -0.60690 590 ft 130 kts 239°
2026-04-16 10:27 51.37122 -0.62064 521 ft 133 kts 246°
2026-04-16 10:27 51.36832 -0.63065 688 ft 87 kts 245°
2026-04-16 10:28 51.36467 -0.64023 742 ft 107 kts 232°
2026-04-16 10:28 51.36271 -0.65024 898 ft 108 kts 256°
2026-04-16 10:28 51.36078 -0.66299 905 ft 118 kts 258°
2026-04-16 10:28 51.35944 -0.67409 1055 ft 104 kts 240°
2026-04-16 10:29 51.35488 -0.68513 858 ft 127 kts 238°
2026-04-16 10:29 51.34940 -0.69721 620 ft 139 kts 229°
2026-04-16 10:29 51.34489 -0.70293 725 ft 92 kts 218°
2026-04-16 10:29 51.34080 -0.71139 905 ft 109 kts 229°
2026-04-16 10:30 51.33574 -0.72182 831 ft 126 kts 232°
2026-04-16 10:30 51.33046 -0.73229 946 ft 118 kts 229°
2026-04-16 10:30 51.32595 -0.74273 1168 ft 108 kts 235°
2026-04-16 10:30 51.32119 -0.75181 1437 ft 112 kts 225°
2026-04-16 10:31 51.31564 -0.76065 1509 ft 84 kts 222°
2026-04-16 10:31 51.31179 -0.76926 1245 ft 98 kts 240°
2026-04-16 10:31 51.30744 -0.78028 913 ft 129 kts 233°
2026-04-16 10:31 51.30419 -0.78973 998 ft 70 kts 246°
2026-04-16 10:32 51.30007 -0.79499 1258 ft 95 kts 191°
2026-04-16 10:32 51.29320 -0.79105 1329 ft 129 kts 135°
2026-04-16 10:32 51.28776 -0.78211 1293 ft 81 kts 165°
2026-04-16 10:32 51.28096 -0.77531 1051 ft 133 kts 158°
2026-04-16 10:33 51.27362 -0.77064 944 ft 77 kts 182°
2026-04-16 10:33 51.26767 -0.77359 1028 ft 96 kts 229°
2026-04-16 10:33 51.26152 -0.76955 813 ft 110 kts 158°
2026-04-16 10:33 51.25532 -0.77041 749 ft 82 kts 210°
2026-04-16 10:34 51.25012 -0.77578 930 ft 94 kts 229°
2026-04-16 10:34 51.24395 -0.78198 1090 ft 107 kts 215°
2026-04-16 10:34 51.23667 -0.78270 989 ft 119 kts 182°
2026-04-16 10:34 51.23120 -0.78654 889 ft 85 kts 250°
2026-04-16 10:35 51.22817 -0.79455 1034 ft 92 kts 214°
2026-04-16 10:35 51.22231 -0.79866 1159 ft 98 kts 196°
2026-04-16 10:35 51.21441 -0.79907 1053 ft 115 kts 187°
2026-04-16 10:35 51.20710 -0.80144 1143 ft 105 kts 200°
2026-04-16 10:36 51.17094 -0.82385 1209 ft 1090 kts 201°
2026-04-16 10:36 51.10199 -0.86721 1338 ft 1125 kts 201°
2026-04-16 10:36 51.02466 -0.92500 1408 ft 1233 kts 205°
2026-04-16 10:36 50.95284 -0.97906 1416 ft 1171 kts 205°
2026-04-16 10:37 50.87517 -1.03038 1415 ft 1316 kts 205°
2026-04-16 10:37 50.78875 -1.09520 1409 ft 1418 kts 205°
2026-04-16 10:37 50.70066 -1.14752 1414 ft 0 kts 205°
2026-04-16 10:37 50.69957 -1.14849 1829 ft 14 kts 230°
2026-04-16 10:38 50.69749 -1.14985 2202 ft 70 kts 213°
2026-04-16 10:38 50.69165 -1.15169 1293 ft 59 kts 216°
2026-04-16 10:38 50.68582 -1.15498 1226 ft 111 kts 196°
2026-04-16 10:38 50.67968 -1.15839 1267 ft 49 kts 221°
2026-04-16 10:39 50.67452 -1.16358 1025 ft 118 kts 208°
2026-04-16 10:39 50.66937 -1.17005 1034 ft 76 kts 218°
2026-04-16 10:39 50.66356 -1.17558 896 ft 121 kts 206°
2026-04-16 10:39 50.65714 -1.18023 415 ft 79 kts 213°
2026-04-16 10:40 50.65163 -1.18470 264 ft 49 kts 207°
2026-04-16 10:40 50.65047 -1.18591 236 ft 13 kts 307°
2026-04-16 10:40 50.65001 -1.18605 96 ft 12 kts 45°
2026-04-16 10:40 50.64956 -1.18600 50 ft 0 kts 36°